createdAt,value
2018-01-29T00:01:01.226Z,11.40
2018-01-29T00:03:32.003Z,11.46
2018-01-29T00:06:02.218Z,11.49
2018-01-29T00:08:32.456Z,11.46
2018-01-29T00:11:02.818Z,11.44
2018-01-29T00:13:33.028Z,11.51
2018-01-29T00:16:03.513Z,11.40
2018-01-29T00:18:34.805Z,11.37
2018-01-29T00:21:05.009Z,11.38
2018-01-29T00:23:35.415Z,11.36
2018-01-29T00:26:05.715Z,11.41
2018-01-29T00:28:36.791Z,11.47
2018-01-29T00:31:07.172Z,11.46
2018-01-29T00:33:37.744Z,11.42
2018-01-29T00:36:08.420Z,11.43
2018-01-29T00:38:39.028Z,11.43
2018-01-29T00:41:09.363Z,11.43
2018-01-29T00:43:40.712Z,11.50
2018-01-29T00:46:10.981Z,11.55
2018-01-29T00:48:41.339Z,11.52
2018-01-29T00:51:11.783Z,11.46
2018-01-29T00:53:42.173Z,11.49
2018-01-29T00:56:12.505Z,11.47
2018-01-29T00:58:42.767Z,11.52
2018-01-29T01:01:13.176Z,11.50
2018-01-29T01:03:43.831Z,11.44
2018-01-29T01:06:14.205Z,11.53
2018-01-29T01:08:44.792Z,11.44
2018-01-29T01:11:14.984Z,11.39
2018-01-29T01:13:45.645Z,11.45
2018-01-29T01:16:16.070Z,11.42
2018-01-29T01:18:46.279Z,11.47
2018-01-29T01:21:16.599Z,11.54
2018-01-29T01:23:47.031Z,11.50
2018-01-29T01:26:17.332Z,11.53
2018-01-29T01:28:47.559Z,11.48
2018-01-29T01:31:17.864Z,11.46
2018-01-29T01:33:48.054Z,11.52
2018-01-29T01:36:18.394Z,11.47
2018-01-29T01:38:48.882Z,11.43
2018-01-29T01:41:19.362Z,11.37
2018-01-29T01:43:49.583Z,11.38
2018-01-29T01:46:20.604Z,11.46
2018-01-29T01:48:50.868Z,11.45
2018-01-29T01:51:28.682Z,11.44
2018-01-29T01:53:58.771Z,11.46
2018-01-29T01:56:29.404Z,11.36
2018-01-29T01:59:00.372Z,11.35
2018-01-29T02:01:30.524Z,11.34
2018-01-29T02:04:00.908Z,11.35
2018-01-29T02:06:31.851Z,11.39
2018-01-29T02:09:02.144Z,11.37
2018-01-29T02:11:32.740Z,11.40
2018-01-29T02:14:03.308Z,11.27
2018-01-29T02:16:33.608Z,11.31
2018-01-29T02:19:03.983Z,11.39
2018-01-29T02:21:34.454Z,11.35
2018-01-29T02:24:05.067Z,11.30
2018-01-29T02:26:35.644Z,11.25
2018-01-29T02:29:06.234Z,11.25
2018-01-29T02:31:37.017Z,11.32
2018-01-29T02:34:07.246Z,11.25
2018-01-29T02:36:37.625Z,11.31
2018-01-29T02:39:08.066Z,11.22
2018-01-29T02:41:38.298Z,11.29
2018-01-29T02:44:08.513Z,11.28
2018-01-29T02:46:38.920Z,11.26
2018-01-29T02:49:09.571Z,11.34
2018-01-29T02:51:39.832Z,11.27
2018-01-29T02:54:09.989Z,11.28
2018-01-29T02:56:40.326Z,11.25
2018-01-29T02:59:11.006Z,11.21
2018-01-29T03:01:41.375Z,11.18
2018-01-29T03:04:11.727Z,11.32
2018-01-29T03:06:41.935Z,11.24
2018-01-29T03:09:12.276Z,11.27
2018-01-29T03:11:42.417Z,11.21
2018-01-29T03:14:12.755Z,11.26
2018-01-29T03:16:43.183Z,11.25
2018-01-29T03:19:13.287Z,11.39
2018-01-29T03:21:43.708Z,11.35
2018-01-29T03:24:14.102Z,11.34
2018-01-29T03:26:44.410Z,11.33
2018-01-29T03:29:15.442Z,11.36
2018-01-29T03:31:46.716Z,11.47
2018-01-29T03:34:16.833Z,11.43
2018-01-29T03:36:47.081Z,11.41
2018-01-29T03:39:18.339Z,11.48
2018-01-29T03:41:48.514Z,11.41
2018-01-29T03:44:19.831Z,11.49
2018-01-29T03:46:50.129Z,11.49
2018-01-29T03:49:20.486Z,11.41
2018-01-29T03:51:51.407Z,11.44
2018-01-29T03:54:22.094Z,11.48
2018-01-29T03:56:52.110Z,11.54
2018-01-29T03:59:22.537Z,11.58
2018-01-29T04:01:52.718Z,11.61
2018-01-29T04:04:23.957Z,11.58
2018-01-29T04:06:54.437Z,11.59
2018-01-29T04:09:24.707Z,11.55
2018-01-29T04:11:54.865Z,11.61
2018-01-29T04:14:25.793Z,11.58
2018-01-29T04:16:55.974Z,11.59
2018-01-29T04:19:26.359Z,11.51
2018-01-29T04:21:56.447Z,11.57
2018-01-29T04:24:26.681Z,11.53
2018-01-29T04:26:56.888Z,11.62
2018-01-29T04:29:27.418Z,11.61
2018-01-29T04:31:57.497Z,11.57
2018-01-29T04:34:27.775Z,11.60
2018-01-29T04:36:57.885Z,11.64
2018-01-29T04:39:28.503Z,11.66
2018-01-29T04:41:58.701Z,11.66
2018-01-29T04:44:29.138Z,11.59
2018-01-29T04:46:59.310Z,11.64
2018-01-29T04:49:29.565Z,11.67
2018-01-29T04:52:00.211Z,11.68
2018-01-29T04:54:30.730Z,11.65
2018-01-29T04:57:00.946Z,11.62
2018-01-29T04:59:31.279Z,11.60
2018-01-29T05:02:01.589Z,11.66
2018-01-29T05:04:31.881Z,11.69
2018-01-29T05:07:02.709Z,11.64
2018-01-29T05:09:33.912Z,11.70
2018-01-29T05:12:04.520Z,11.69
2018-01-29T05:14:34.788Z,11.63
2018-01-29T05:17:05.015Z,11.66
2018-01-29T05:19:35.179Z,11.67
2018-01-29T05:22:06.571Z,11.68
2018-01-29T05:24:36.723Z,11.70
2018-01-29T05:27:06.879Z,11.69
2018-01-29T05:29:36.897Z,11.62
2018-01-29T05:32:07.003Z,11.70
2018-01-29T05:34:37.870Z,11.69
2018-01-29T05:37:08.164Z,11.75
2018-01-29T05:39:38.461Z,11.65
2018-01-29T05:42:08.923Z,11.67
2018-01-29T05:44:39.067Z,11.69
2018-01-29T05:47:09.506Z,11.63
2018-01-29T05:49:39.826Z,11.72
2018-01-29T05:52:09.840Z,11.72
2018-01-29T05:54:39.879Z,11.74
2018-01-29T05:57:09.800Z,11.76
2018-01-29T05:59:39.878Z,11.68
2018-01-29T06:02:09.839Z,11.79
2018-01-29T06:04:39.865Z,11.76
2018-01-29T06:07:09.829Z,11.73
2018-01-29T06:09:39.932Z,11.79
2018-01-29T06:12:10.487Z,11.82
2018-01-29T06:14:40.405Z,11.79
2018-01-29T06:17:10.455Z,11.73
2018-01-29T06:19:40.270Z,11.79
2018-01-29T06:22:10.084Z,11.71
2018-01-29T06:24:40.199Z,11.69
2018-01-29T06:27:10.276Z,11.74
2018-01-29T06:29:40.149Z,11.71
2018-01-29T06:32:10.218Z,11.74
2018-01-29T06:34:40.293Z,11.79
2018-01-29T06:37:10.133Z,11.78
2018-01-29T06:39:40.824Z,11.73
2018-01-29T06:42:10.781Z,11.75
2018-01-29T06:44:41.384Z,11.73
2018-01-29T06:47:11.497Z,11.71
2018-01-29T06:49:42.857Z,11.69
2018-01-29T06:52:12.760Z,11.76
2018-01-29T06:54:42.774Z,11.74
2018-01-29T06:57:13.433Z,11.76
2018-01-29T06:59:43.229Z,11.71
2018-01-29T07:02:13.345Z,11.67
2018-01-29T07:04:50.020Z,11.73
2018-01-29T07:07:19.896Z,11.81
2018-01-29T07:09:50.025Z,11.76
2018-01-29T07:12:20.033Z,11.75
2018-01-29T07:14:50.006Z,11.74
2018-01-29T07:17:19.880Z,11.77
2018-01-29T07:19:49.849Z,11.72
2018-01-29T07:22:20.632Z,11.67
2018-01-29T07:24:50.438Z,11.75
2018-01-29T07:27:20.423Z,11.73
2018-01-29T07:29:51.234Z,11.67
2018-01-29T07:32:21.103Z,11.67
2018-01-29T07:34:51.027Z,11.66
2018-01-29T07:37:22.301Z,11.68
2018-01-29T07:39:52.326Z,11.75
2018-01-29T07:42:22.483Z,11.75
2018-01-29T07:44:52.663Z,11.69
2018-01-29T07:47:22.639Z,11.71
2018-01-29T07:49:52.727Z,11.74
2018-01-29T07:52:23.317Z,11.65
2018-01-29T07:54:53.590Z,11.72
2018-01-29T07:57:24.608Z,11.70
2018-01-29T07:59:54.558Z,11.73
2018-01-29T08:02:24.523Z,11.78
2018-01-29T08:04:54.753Z,11.82
2018-01-29T08:07:24.646Z,11.70
2018-01-29T08:09:54.630Z,11.71
2018-01-29T08:12:24.683Z,11.71
2018-01-29T08:14:54.546Z,11.73
2018-01-29T08:17:25.344Z,11.69
2018-01-29T08:19:55.465Z,11.77
2018-01-29T08:22:25.476Z,11.74
2018-01-29T08:24:55.388Z,11.91
2018-01-29T08:27:25.385Z,11.81
2018-01-29T08:29:55.435Z,11.82
2018-01-29T08:32:25.683Z,11.70
2018-01-29T08:34:55.622Z,11.73
2018-01-29T08:37:25.931Z,11.74
2018-01-29T08:39:56.518Z,11.87
2018-01-29T08:42:26.682Z,11.89
2018-01-29T08:44:57.694Z,11.91
2018-01-29T08:47:27.903Z,11.94
2018-01-29T08:49:58.149Z,11.84
2018-01-29T08:52:28.496Z,11.94
2018-01-29T08:54:58.917Z,11.90
2018-01-29T08:57:28.737Z,11.95
2018-01-29T08:59:59.828Z,11.93
2018-01-29T09:02:30.038Z,11.95
2018-01-29T09:05:00.406Z,11.88
2018-01-29T09:07:31.429Z,11.83
2018-01-29T09:10:01.625Z,11.85
2018-01-29T09:12:31.981Z,12.91
2018-01-29T09:15:02.494Z,13.48
2018-01-29T09:17:33.100Z,13.60
2018-01-29T09:20:03.622Z,13.62
2018-01-29T09:22:33.801Z,13.50
2018-01-29T09:25:04.230Z,13.65
2018-01-29T09:27:34.719Z,13.15
2018-01-29T09:30:05.089Z,12.71
2018-01-29T09:32:36.130Z,12.50
2018-01-29T09:35:06.391Z,12.40
2018-01-29T09:37:36.542Z,12.22
2018-01-29T09:40:06.732Z,12.22
2018-01-29T09:42:36.887Z,12.26
2018-01-29T09:45:08.257Z,12.30
2018-01-29T09:47:39.087Z,12.19
2018-01-29T09:50:09.826Z,12.13
2018-01-29T09:52:40.869Z,12.07
2018-01-29T09:55:11.336Z,12.09
2018-01-29T09:57:41.372Z,12.13
2018-01-29T10:00:13.612Z,12.07
2018-01-29T10:02:44.331Z,12.03
2018-01-29T10:05:14.367Z,12.07
2018-01-29T10:07:45.409Z,12.03
2018-01-29T10:10:17.958Z,12.06
2018-01-29T10:12:48.093Z,12.00
2018-01-29T10:15:18.065Z,12.04
2018-01-29T10:17:47.918Z,11.99
2018-01-29T10:20:18.619Z,12.01
2018-01-29T10:22:48.607Z,12.05
2018-01-29T10:25:19.971Z,12.10
2018-01-29T10:27:50.133Z,12.09
2018-01-29T10:30:20.055Z,12.04
2018-01-29T10:32:49.866Z,12.02
2018-01-29T10:35:19.764Z,12.04
2018-01-29T10:37:49.691Z,12.05
2018-01-29T10:40:19.730Z,12.01
2018-01-29T10:42:49.624Z,12.04
2018-01-29T10:45:19.405Z,12.09
2018-01-29T10:47:49.285Z,12.10
2018-01-29T10:50:19.914Z,12.09
2018-01-29T10:52:50.480Z,12.07
2018-01-29T10:55:20.408Z,12.18
2018-01-29T10:57:50.520Z,12.24
2018-01-29T11:00:20.443Z,12.25
2018-01-29T11:02:50.551Z,12.23
2018-01-29T11:05:20.901Z,12.26
2018-01-29T11:07:50.715Z,12.20
2018-01-29T11:10:21.474Z,12.23
2018-01-29T11:12:51.792Z,12.24
2018-01-29T11:15:21.890Z,12.09
2018-01-29T11:17:51.709Z,12.18
2018-01-29T11:20:22.471Z,12.12
2018-01-29T11:22:52.418Z,12.25
2018-01-29T11:25:22.440Z,12.29
2018-01-29T11:27:53.058Z,12.21
2018-01-29T11:30:23.042Z,12.22
2018-01-29T11:32:53.040Z,12.25
2018-01-29T11:35:23.147Z,12.19
2018-01-29T11:37:53.548Z,12.26
2018-01-29T11:40:24.177Z,12.29
2018-01-29T11:42:54.061Z,12.23
2018-01-29T11:45:24.653Z,12.29
2018-01-29T11:47:56.129Z,12.27
2018-01-29T11:50:25.941Z,12.18
2018-01-29T11:52:55.748Z,12.25
2018-01-29T11:55:25.548Z,12.33
2018-01-29T11:57:55.642Z,12.25
2018-01-29T12:00:25.513Z,12.18
2018-01-29T12:02:55.658Z,12.21
2018-01-29T12:05:25.565Z,12.11
2018-01-29T12:07:56.339Z,12.11
2018-01-29T12:10:26.324Z,12.17
2018-01-29T12:12:56.916Z,12.16
2018-01-29T12:15:26.994Z,12.16
2018-01-29T12:17:57.140Z,12.14
2018-01-29T12:20:27.324Z,12.25
2018-01-29T12:22:57.220Z,12.23
2018-01-29T12:25:28.073Z,12.17
2018-01-29T12:27:58.871Z,12.30
2018-01-29T12:30:28.948Z,12.16
2018-01-29T12:32:59.002Z,12.11
2018-01-29T12:35:28.823Z,12.17
2018-01-29T12:37:58.849Z,12.18
2018-01-29T12:40:28.697Z,12.19
2018-01-29T12:42:58.681Z,12.18
2018-01-29T12:45:28.942Z,12.16
2018-01-29T12:47:58.825Z,12.12
2018-01-29T12:50:28.784Z,12.12
2018-01-29T12:52:58.606Z,12.12
2018-01-29T12:55:28.466Z,12.20
2018-01-29T12:57:58.385Z,12.12
2018-01-29T13:00:28.140Z,12.14
2018-01-29T13:02:58.111Z,12.21
2018-01-29T13:05:28.175Z,12.09
2018-01-29T13:07:58.165Z,12.11
2018-01-29T13:10:28.089Z,12.09
2018-01-29T13:12:57.966Z,12.08
2018-01-29T13:15:28.003Z,12.05
2018-01-29T13:17:58.584Z,12.11
2018-01-29T13:20:28.582Z,12.00
2018-01-29T13:22:58.916Z,12.00
2018-01-29T13:25:28.998Z,11.90
2018-01-29T13:27:58.889Z,11.83
2018-01-29T13:30:28.781Z,11.76
2018-01-29T13:32:58.877Z,11.78
2018-01-29T13:35:28.955Z,11.82
2018-01-29T13:37:58.953Z,11.80
2018-01-29T13:40:28.766Z,11.74
2018-01-29T13:42:58.868Z,11.69
2018-01-29T13:45:28.684Z,11.66
2018-01-29T13:47:58.581Z,11.65
2018-01-29T13:50:28.381Z,11.62
2018-01-29T13:52:58.233Z,11.68
2018-01-29T13:55:28.029Z,11.64
2018-01-29T13:57:57.881Z,11.68
2018-01-29T14:00:28.740Z,11.63
2018-01-29T14:02:59.361Z,11.65
2018-01-29T14:05:29.432Z,11.65
2018-01-29T14:07:59.584Z,11.62
2018-01-29T14:10:29.561Z,11.67
2018-01-29T14:13:00.189Z,11.73
2018-01-29T14:15:30.159Z,11.77
2018-01-29T14:18:00.180Z,11.77
2018-01-29T14:20:30.136Z,11.77
2018-01-29T14:22:59.965Z,11.79
2018-01-29T14:25:29.986Z,11.80
2018-01-29T14:28:00.130Z,11.75
2018-01-29T14:30:30.145Z,11.88
2018-01-29T14:33:00.336Z,11.83
2018-01-29T14:35:30.157Z,11.85
2018-01-29T14:38:00.044Z,11.75
2018-01-29T14:40:31.105Z,11.71
2018-01-29T14:43:01.061Z,11.53
2018-01-29T14:45:30.980Z,11.50
2018-01-29T14:48:01.004Z,11.36
2018-01-29T14:50:31.285Z,11.31
2018-01-29T14:53:01.284Z,11.30
2018-01-29T14:55:31.166Z,11.37
2018-01-29T14:58:01.082Z,11.40
2018-01-29T15:00:31.032Z,11.48
2018-01-29T15:03:01.828Z,11.43
2018-01-29T15:05:31.929Z,11.54
2018-01-29T15:08:01.738Z,11.63
2018-01-29T15:10:31.806Z,11.68
2018-01-29T15:13:01.927Z,11.71
2018-01-29T15:15:33.112Z,11.73
2018-01-29T15:18:03.008Z,11.74
2018-01-29T15:20:33.109Z,11.73
2018-01-29T15:23:03.837Z,11.75
2018-01-29T15:25:34.435Z,11.81
2018-01-29T15:28:04.407Z,11.79
2018-01-29T15:30:34.376Z,11.86
2018-01-29T15:33:04.357Z,11.88
2018-01-29T15:35:34.364Z,11.93
2018-01-29T15:38:04.261Z,11.88
2018-01-29T15:40:34.829Z,11.89
2018-01-29T15:43:04.788Z,11.87
2018-01-29T15:45:34.770Z,11.74
2018-01-29T15:48:04.871Z,11.69
2018-01-29T15:50:34.729Z,11.72
2018-01-29T15:53:04.764Z,11.70
2018-01-29T15:55:35.475Z,11.72
2018-01-29T15:58:05.378Z,11.69
2018-01-29T16:00:35.209Z,11.67
2018-01-29T16:03:05.144Z,11.59
2018-01-29T16:05:35.094Z,11.61
2018-01-29T16:08:05.104Z,11.51
2018-01-29T16:10:35.834Z,11.48
2018-01-29T16:13:06.638Z,11.28
2018-01-29T16:15:36.677Z,11.24
2018-01-29T16:18:06.639Z,11.17
2018-01-29T16:20:36.647Z,11.13
2018-01-29T16:23:06.760Z,11.17
2018-01-29T16:25:36.805Z,11.05
2018-01-29T16:28:06.801Z,11.05
2018-01-29T16:30:36.717Z,11.08
2018-01-29T16:33:06.708Z,11.03
2018-01-29T16:35:36.862Z,10.94
2018-01-29T16:38:07.029Z,10.88
2018-01-29T16:40:37.496Z,10.90
2018-01-29T16:43:07.347Z,10.78
2018-01-29T16:45:37.289Z,10.80
2018-01-29T16:48:07.605Z,10.84
2018-01-29T16:50:37.985Z,10.83
2018-01-29T16:53:07.975Z,10.85
2018-01-29T16:55:40.072Z,10.82
2018-01-29T16:58:10.117Z,10.78
2018-01-29T17:00:40.187Z,10.81
2018-01-29T17:03:11.153Z,10.76
2018-01-29T17:05:41.322Z,10.83
2018-01-29T17:08:11.812Z,10.75
2018-01-29T17:10:42.005Z,10.91
2018-01-29T17:13:13.201Z,10.79
2018-01-29T17:15:43.925Z,10.83
2018-01-29T17:18:14.493Z,10.75
2018-01-29T17:20:45.007Z,10.75
2018-01-29T17:23:15.208Z,10.82
2018-01-29T17:25:45.468Z,10.84
2018-01-29T17:28:15.649Z,10.78
2018-01-29T17:30:45.426Z,10.85
2018-01-29T17:33:15.433Z,10.70
2018-01-29T17:35:45.436Z,10.71
2018-01-29T17:38:15.606Z,10.68
2018-01-29T17:40:45.605Z,10.66
2018-01-29T17:43:15.747Z,10.63
2018-01-29T17:45:46.548Z,10.62
2018-01-29T17:48:16.541Z,10.64
2018-01-29T17:50:46.421Z,10.57
2018-01-29T17:53:16.392Z,10.59
2018-01-29T17:55:46.590Z,10.57
2018-01-29T17:58:16.617Z,10.59
2018-01-29T18:00:46.471Z,10.54
2018-01-29T18:03:16.486Z,10.53
2018-01-29T18:05:46.494Z,10.63
2018-01-29T18:08:16.559Z,10.54
2018-01-29T18:10:46.368Z,10.56
2018-01-29T18:13:17.216Z,10.54
2018-01-29T18:15:47.183Z,10.60
2018-01-29T18:18:18.417Z,10.53
2018-01-29T18:20:48.763Z,10.55
2018-01-29T18:23:18.977Z,10.59
2018-01-29T18:25:49.085Z,10.56
2018-01-29T18:28:19.270Z,10.55
2018-01-29T18:30:49.270Z,10.56
2018-01-29T18:33:19.354Z,10.63
2018-01-29T18:35:49.630Z,10.68
2018-01-29T18:38:19.596Z,10.69
2018-01-29T18:40:49.787Z,10.65
2018-01-29T18:43:19.540Z,10.65
2018-01-29T18:45:49.644Z,10.72
2018-01-29T18:48:19.746Z,10.71
2018-01-29T18:50:52.170Z,10.71
2018-01-29T18:53:22.264Z,10.72
2018-01-29T18:55:53.094Z,10.78
2018-01-29T18:58:23.987Z,10.80
2018-01-29T19:00:54.130Z,10.80
2018-01-29T19:03:24.434Z,10.81
2018-01-29T19:05:54.502Z,10.82
2018-01-29T19:08:25.448Z,10.72
2018-01-29T19:10:56.098Z,10.71
2018-01-29T19:13:26.109Z,10.72
2018-01-29T19:15:56.034Z,10.74
2018-01-29T19:18:26.052Z,10.72
2018-01-29T19:20:56.970Z,10.55
2018-01-29T19:23:27.802Z,10.53
2018-01-29T19:26:00.052Z,10.56
2018-01-29T19:28:29.995Z,10.55
2018-01-29T19:31:00.091Z,10.68
2018-01-29T19:33:30.502Z,10.60
2018-01-29T19:36:01.476Z,10.54
2018-01-29T19:38:32.351Z,10.50
2018-01-29T19:41:07.448Z,10.49
2018-01-29T19:43:37.883Z,10.38
2018-01-29T19:46:08.261Z,10.29
2018-01-29T19:48:38.563Z,10.32
2018-01-29T19:51:08.896Z,10.28
2018-01-29T19:53:39.603Z,10.29
2018-01-29T19:56:09.956Z,10.37
2018-01-29T19:58:40.118Z,10.28
2018-01-29T20:01:11.663Z,10.19
2018-01-29T20:03:46.388Z,10.07
2018-01-29T20:06:17.526Z,10.03
2018-01-29T20:08:48.093Z,9.95
2018-01-29T20:11:18.511Z,9.88
2018-01-29T20:13:48.914Z,9.92
2018-01-29T20:16:19.325Z,9.84
2018-01-29T20:18:50.127Z,9.75
2018-01-29T20:21:20.322Z,9.81
2018-01-29T20:23:51.231Z,9.70
2018-01-29T20:26:21.327Z,9.54
2018-01-29T20:28:52.484Z,9.54
2018-01-29T20:31:22.787Z,9.53
2018-01-29T20:33:53.156Z,9.48
2018-01-29T20:36:24.069Z,9.38
2018-01-29T20:38:54.342Z,9.49
2018-01-29T20:41:26.449Z,9.43
2018-01-29T20:43:57.061Z,9.47
2018-01-29T20:46:28.115Z,9.44
2018-01-29T20:48:58.246Z,9.43
2018-01-29T20:51:28.876Z,9.43
2018-01-29T20:53:59.039Z,9.37
2018-01-29T20:56:30.868Z,9.31
2018-01-29T20:59:01.102Z,9.25
2018-01-29T21:01:31.384Z,9.28
2018-01-29T21:04:01.372Z,9.19
2018-01-29T21:06:31.578Z,9.22
2018-01-29T21:09:01.721Z,9.13
2018-01-29T21:11:32.223Z,9.12
2018-01-29T21:14:02.222Z,9.04
2018-01-29T21:16:33.169Z,8.97
2018-01-29T21:19:03.014Z,9.02
2018-01-29T21:21:34.138Z,9.04
2018-01-29T21:24:04.386Z,9.17
2018-01-29T21:26:35.351Z,9.03
2018-01-29T21:29:05.591Z,8.97
2018-01-29T21:31:36.098Z,8.98
2018-01-29T21:34:06.508Z,9.12
2018-01-29T21:36:37.821Z,9.08
2018-01-29T21:39:08.331Z,9.04
2018-01-29T21:41:40.760Z,9.04
2018-01-29T21:44:10.750Z,8.97
2018-01-29T21:46:41.431Z,8.85
2018-01-29T21:49:12.710Z,8.88
2018-01-29T21:51:42.871Z,8.85
2018-01-29T21:54:13.289Z,8.80
2018-01-29T21:56:43.615Z,8.77
2018-01-29T21:59:13.936Z,8.71
2018-01-29T22:01:44.032Z,8.72
2018-01-29T22:04:13.960Z,8.74
2018-01-29T22:06:44.109Z,8.71
2018-01-29T22:09:14.546Z,8.64
2018-01-29T22:11:44.480Z,8.62
2018-01-29T22:14:15.417Z,8.68
2018-01-29T22:16:45.329Z,8.61
2018-01-29T22:19:15.258Z,8.58
2018-01-29T22:21:45.262Z,8.58
2018-01-29T22:24:15.204Z,8.51
2018-01-29T22:26:45.908Z,8.44
2018-01-29T22:29:16.716Z,8.38
2018-01-29T22:31:46.747Z,8.47
2018-01-29T22:34:16.749Z,8.46
2018-01-29T22:36:47.543Z,8.41
2018-01-29T22:39:17.748Z,8.29
2018-01-29T22:41:48.043Z,8.27
2018-01-29T22:44:19.044Z,8.28
2018-01-29T22:46:49.303Z,8.27
2018-01-29T22:49:20.102Z,8.28
2018-01-29T22:51:50.313Z,8.29
2018-01-29T22:54:20.224Z,8.19
2018-01-29T22:56:50.049Z,8.16
2018-01-29T22:59:20.194Z,8.14
2018-01-29T23:01:50.129Z,8.06
2018-01-29T23:04:21.092Z,8.04
2018-01-29T23:06:51.031Z,7.99
2018-01-29T23:09:20.942Z,8.01
2018-01-29T23:11:51.010Z,7.94
2018-01-29T23:14:21.720Z,7.95
2018-01-29T23:16:51.774Z,7.96
2018-01-29T23:19:21.669Z,7.89
2018-01-29T23:21:52.425Z,8.03
2018-01-29T23:24:22.459Z,7.89
2018-01-29T23:26:52.484Z,7.92
2018-01-29T23:29:22.520Z,7.86
2018-01-29T23:31:52.499Z,7.80
2018-01-29T23:34:23.098Z,7.83
2018-01-29T23:36:53.091Z,7.89
2018-01-29T23:39:23.064Z,7.94
2018-01-29T23:41:53.116Z,7.84
2018-01-29T23:44:22.617Z,7.80
2018-01-29T23:46:52.838Z,7.80
2018-01-29T23:49:22.835Z,7.78
2018-01-29T23:51:52.627Z,7.69
2018-01-29T23:54:23.208Z,7.64
2018-01-29T23:56:53.046Z,7.78
2018-01-29T23:59:22.920Z,7.76
